Time;durP1;ratioP1;P1;durP2;ratioP2;P2;SDS_P1;SDS_P2;PMS_P1;PMS_P2;Temp;Humidity;BMP_temperature;BMP_pressure;BME280_temperature;BME280_humidity;BME280_pressure;Samples;Min_cycle;Max_cycle;Signal;HPM_P1;HPM_P2
2023/12/11 00:00:27;;;;;;;8.63;4.03;;;;;;;;;;5111859;28;20461;-72
2023/12/11 00:02:55;;;;;;;8.25;3.80;;;;;;;;;;5112476;28;20108;-72
2023/12/11 00:05:22;;;;;;;8.20;4.40;;;;;;;;;;5112109;28;20048;-72
2023/12/11 00:07:48;;;;;;;7.13;3.70;;;;;;;;;;5111739;28;20124;-72
2023/12/11 00:10:15;;;;;;;9.48;4.80;;;;;;;;;;5112425;28;20047;-72
2023/12/11 00:12:42;;;;;;;7.35;3.85;;;;;;;;;;5111424;28;20052;-72
2023/12/11 00:15:10;;;;;;;6.78;3.35;;;;;;;;;;5111536;28;20148;-71
2023/12/11 00:17:37;;;;;;;5.13;2.90;;;;;;;;;;5120453;28;20051;-71
2023/12/11 00:20:05;;;;;;;5.32;2.67;;;;;;;;;;5122026;28;20089;-72
2023/12/11 00:22:32;;;;;;;6.88;3.15;;;;;;;;;;5121471;28;20043;-72
2023/12/11 00:24:58;;;;;;;5.80;3.17;;;;;;;;;;5120589;28;20078;-71
2023/12/11 00:27:25;;;;;;;8.32;3.90;;;;;;;;;;5115085;28;20045;-71
2023/12/11 00:29:52;;;;;;;5.80;3.35;;;;;;;;;;5111207;28;20043;-71
2023/12/11 00:32:19;;;;;;;7.85;4.03;;;;;;;;;;5111305;28;20101;-72
2023/12/11 00:34:45;;;;;;;5.80;3.78;;;;;;;;;;5112505;28;20573;-71
2023/12/11 00:37:12;;;;;;;7.88;3.97;;;;;;;;;;5111316;28;20047;-71
2023/12/11 00:39:39;;;;;;;8.40;4.22;;;;;;;;;;5119384;28;20248;-71
2023/12/11 00:42:06;;;;;;;7.03;4.28;;;;;;;;;;5117569;28;20044;-71
2023/12/11 00:44:32;;;;;;;7.55;4.20;;;;;;;;;;5111139;28;20044;-71
2023/12/11 00:47:04;;;;;;;7.50;4.05;;;;;;;;;;5110362;28;20445;-71
2023/12/11 00:49:31;;;;;;;7.32;4.35;;;;;;;;;;5110901;28;20062;-71
2023/12/11 00:51:59;;;;;;;6.97;3.60;;;;;;;;;;5110966;28;20105;-71
2023/12/11 00:54:26;;;;;;;6.63;4.20;;;;;;;;;;5118407;28;20059;-72
2023/12/11 00:56:53;;;;;;;6.90;3.78;;;;;;;;;;5121712;28;20043;-71
2023/12/11 00:59:19;;;;;;;7.55;3.63;;;;;;;;;;5115716;28;20054;-72
2023/12/11 01:01:46;;;;;;;7.30;4.20;;;;;;;;;;5118096;28;20092;-71
2023/12/11 01:04:13;;;;;;;5.10;3.20;;;;;;;;;;5116055;28;20047;-71
2023/12/11 01:06:41;;;;;;;5.18;2.85;;;;;;;;;;5110132;28;20048;-71
2023/12/11 01:09:07;;;;;;;4.63;2.53;;;;;;;;;;5110194;28;20096;-71
2023/12/11 01:11:34;;;;;;;4.75;2.58;;;;;;;;;;5112710;28;20047;-71
2023/12/11 01:14:01;;;;;;;6.55;2.70;;;;;;;;;;5116396;28;20054;-71
2023/12/11 01:16:27;;;;;;;7.28;3.78;;;;;;;;;;5118663;28;20051;-71
2023/12/11 01:18:54;;;;;;;6.72;3.92;;;;;;;;;;5119213;28;20054;-71
2023/12/11 01:21:21;;;;;;;8.63;3.88;;;;;;;;;;5101068;28;20063;-71
2023/12/11 01:23:47;;;;;;;7.32;3.80;;;;;;;;;;5116855;28;20136;-71
2023/12/11 01:26:14;;;;;;;6.82;3.67;;;;;;;;;;5121500;28;20096;-71
2023/12/11 01:28:41;;;;;;;7.82;3.95;;;;;;;;;;5120214;28;20043;-71
2023/12/11 01:31:08;;;;;;;7.22;4.03;;;;;;;;;;5121754;28;20106;-71
2023/12/11 01:33:34;;;;;;;8.02;4.22;;;;;;;;;;5121769;28;20043;-71
2023/12/11 01:36:01;;;;;;;7.35;3.88;;;;;;;;;;5113362;28;20058;-71
2023/12/11 01:38:28;;;;;;;8.18;4.22;;;;;;;;;;5111412;28;20052;-71
2023/12/11 01:40:54;;;;;;;7.93;4.20;;;;;;;;;;5121486;28;20112;-71
2023/12/11 01:43:21;;;;;;;9.30;4.75;;;;;;;;;;5121206;28;20107;-71
2023/12/11 01:46:03;;;;;;;7.65;3.80;;;;;;;;;;5121508;28;20075;-71
2023/12/11 01:48:31;;;;;;;7.10;3.95;;;;;;;;;;5115686;28;20101;-71
2023/12/11 01:50:58;;;;;;;8.70;4.97;;;;;;;;;;5120759;27;20055;-71
2023/12/11 01:53:26;;;;;;;8.50;4.18;;;;;;;;;;5118879;27;20040;-71
2023/12/11 01:55:53;;;;;;;10.23;5.18;;;;;;;;;;5120100;27;20211;-71
2023/12/11 01:58:21;;;;;;;10.50;5.40;;;;;;;;;;5125855;27;20461;-71
2023/12/11 02:00:47;;;;;;;10.98;5.05;;;;;;;;;;5119351;27;20047;-71
2023/12/11 02:03:15;;;;;;;7.57;4.30;;;;;;;;;;5118165;27;20070;-71
2023/12/11 02:05:43;;;;;;;6.10;3.90;;;;;;;;;;5100306;27;20608;-72
2023/12/11 02:08:10;;;;;;;8.07;3.92;;;;;;;;;;5124931;27;20046;-71
2023/12/11 02:10:36;;;;;;;6.70;3.70;;;;;;;;;;5131692;27;20273;-72
2023/12/11 02:13:03;;;;;;;8.15;3.83;;;;;;;;;;5124559;27;20040;-71
2023/12/11 02:15:40;;;;;;;8.05;4.43;;;;;;;;;;5118729;27;20047;-72
2023/12/11 02:18:08;;;;;;;7.70;4.43;;;;;;;;;;5118412;27;20067;-72
2023/12/11 02:20:37;;;;;;;7.55;4.25;;;;;;;;;;5129640;27;20047;-71
2023/12/11 02:23:08;;;;;;;8.68;4.10;;;;;;;;;;5129342;27;20519;-71
2023/12/11 02:25:40;;;;;;;9.23;4.85;;;;;;;;;;5132692;27;20047;-71
2023/12/11 02:28:07;;;;;;;7.68;4.63;;;;;;;;;;5137916;27;20503;-71
2023/12/11 02:30:48;;;;;;;7.38;4.07;;;;;;;;;;5141347;27;20324;-71
2023/12/11 02:33:14;;;;;;;8.70;4.45;;;;;;;;;;5139646;27;20043;-71
2023/12/11 02:35:43;;;;;;;8.13;4.30;;;;;;;;;;5138430;27;20054;-71
2023/12/11 02:38:10;;;;;;;7.22;4.30;;;;;;;;;;5137908;27;20047;-71
2023/12/11 02:40:37;;;;;;;7.43;4.03;;;;;;;;;;5138509;27;20111;-72
2023/12/11 02:43:03;;;;;;;8.48;4.55;;;;;;;;;;5132322;27;20069;-72
2023/12/11 02:45:30;;;;;;;9.13;4.35;;;;;;;;;;5129566;27;20112;-72
2023/12/11 02:48:02;;;;;;;8.07;4.28;;;;;;;;;;5129159;27;20039;-72
2023/12/11 02:50:30;;;;;;;7.93;3.92;;;;;;;;;;5129585;27;20534;-71
2023/12/11 02:53:02;;;;;;;7.65;4.20;;;;;;;;;;5129295;27;20174;-71
2023/12/11 02:55:28;;;;;;;7.95;4.13;;;;;;;;;;5137604;27;20050;-71
2023/12/11 02:57:59;;;;;;;7.00;4.10;;;;;;;;;;5135223;28;20054;-71
2023/12/11 03:00:27;;;;;;;6.85;3.72;;;;;;;;;;5129395;28;20047;-71
2023/12/11 03:02:54;;;;;;;7.32;3.70;;;;;;;;;;5129061;28;20494;-71
2023/12/11 03:05:21;;;;;;;6.40;3.60;;;;;;;;;;5129497;27;20043;-71
2023/12/11 03:07:48;;;;;;;5.97;3.10;;;;;;;;;;5128811;28;20043;-71
2023/12/11 03:10:15;;;;;;;6.13;3.35;;;;;;;;;;5128790;28;20050;-71
2023/12/11 03:12:42;;;;;;;5.30;2.83;;;;;;;;;;5129406;28;20460;-71
2023/12/11 03:15:09;;;;;;;7.95;3.45;;;;;;;;;;5141133;28;20055;-71
2023/12/11 03:17:36;;;;;;;4.82;2.90;;;;;;;;;;5140686;28;20075;-72
2023/12/11 03:20:05;;;;;;;4.30;2.70;;;;;;;;;;5140875;28;20043;-71
2023/12/11 03:22:32;;;;;;;5.60;2.90;;;;;;;;;;5140870;28;20106;-71
2023/12/11 03:24:58;;;;;;;4.95;2.88;;;;;;;;;;5137725;28;20055;-71
2023/12/11 03:27:25;;;;;;;5.95;3.40;;;;;;;;;;5139092;28;20146;-71
2023/12/11 03:29:53;;;;;;;5.10;3.13;;;;;;;;;;5128829;28;20496;-71
2023/12/11 03:32:19;;;;;;;6.45;3.38;;;;;;;;;;5128845;27;20502;-71
2023/12/11 03:34:46;;;;;;;6.30;3.78;;;;;;;;;;5128594;28;20047;-71
2023/12/11 03:37:13;;;;;;;5.72;3.53;;;;;;;;;;5128888;27;20078;-71
2023/12/11 03:39:41;;;;;;;8.45;3.70;;;;;;;;;;5128428;28;20047;-71
2023/12/11 03:42:09;;;;;;;5.88;3.83;;;;;;;;;;5129021;28;20044;-71
2023/12/11 03:44:36;;;;;;;5.78;3.08;;;;;;;;;;5128533;28;20495;-71
2023/12/11 03:47:03;;;;;;;6.28;3.10;;;;;;;;;;5128952;28;20122;-71
2023/12/11 03:49:29;;;;;;;5.10;3.28;;;;;;;;;;5128570;28;20047;-74
2023/12/11 03:51:56;;;;;;;5.20;3.05;;;;;;;;;;5128799;27;20552;-71
2023/12/11 03:54:23;;;;;;;5.68;3.50;;;;;;;;;;5131831;27;20412;-72
2023/12/11 03:56:49;;;;;;;5.72;3.33;;;;;;;;;;5132477;27;20058;-71
2023/12/11 03:59:16;;;;;;;5.70;3.47;;;;;;;;;;5133868;27;20069;-71
2023/12/11 04:01:43;;;;;;;5.50;3.45;;;;;;;;;;5132693;27;20444;-71
2023/12/11 04:04:10;;;;;;;5.68;3.45;;;;;;;;;;5132082;27;20422;-71
2023/12/11 04:06:37;;;;;;;6.82;3.38;;;;;;;;;;5132236;27;20474;-71
2023/12/11 04:09:07;;;;;;;7.28;3.83;;;;;;;;;;5131818;27;20086;-71
2023/12/11 04:11:35;;;;;;;4.97;3.10;;;;;;;;;;5133718;27;20142;-74
2023/12/11 04:14:02;;;;;;;6.75;3.35;;;;;;;;;;5141154;27;20054;-71
2023/12/11 04:16:29;;;;;;;6.85;3.45;;;;;;;;;;5137680;27;20081;-70
2023/12/11 04:18:55;;;;;;;5.60;3.40;;;;;;;;;;5137890;27;20214;-72
2023/12/11 04:21:26;;;;;;;7.03;3.13;;;;;;;;;;5132293;27;20653;-73
2023/12/11 04:23:55;;;;;;;5.72;3.38;;;;;;;;;;5131505;27;20090;-71
2023/12/11 04:26:22;;;;;;;5.72;3.15;;;;;;;;;;5135762;27;20103;-71
2023/12/11 04:28:49;;;;;;;5.35;3.30;;;;;;;;;;5139199;27;20534;-71
2023/12/11 04:31:15;;;;;;;6.90;3.70;;;;;;;;;;5133779;27;20522;-71
2023/12/11 04:33:45;;;;;;;6.75;3.70;;;;;;;;;;5131770;27;20054;-71
2023/12/11 04:36:15;;;;;;;5.68;3.58;;;;;;;;;;5131903;27;20046;-71
2023/12/11 04:38:45;;;;;;;6.97;3.47;;;;;;;;;;5131461;27;20051;-71
2023/12/11 04:41:12;;;;;;;6.53;3.42;;;;;;;;;;5132716;27;20096;-71
2023/12/11 04:43:38;;;;;;;5.75;3.00;;;;;;;;;;5131636;27;20449;-71
2023/12/11 04:46:05;;;;;;;4.93;3.08;;;;;;;;;;5131501;27;20519;-71
2023/12/11 04:48:33;;;;;;;5.30;2.78;;;;;;;;;;5131855;27;20075;-71
2023/12/11 04:50:59;;;;;;;7.03;3.08;;;;;;;;;;5131284;27;20043;-71
2023/12/11 04:53:26;;;;;;;8.57;4.05;;;;;;;;;;5131506;27;20396;-71
2023/12/11 04:55:53;;;;;;;5.03;3.10;;;;;;;;;;5130876;27;20538;-71
2023/12/11 04:58:20;;;;;;;5.28;2.95;;;;;;;;;;5126005;27;20043;-71
2023/12/11 05:00:47;;;;;;;6.70;3.88;;;;;;;;;;5121281;27;20047;-71
2023/12/11 05:03:14;;;;;;;5.00;3.47;;;;;;;;;;5110344;28;20044;-72
2023/12/11 05:05:41;;;;;;;6.88;3.65;;;;;;;;;;5109006;28;20465;-72
2023/12/11 05:08:08;;;;;;;6.70;3.70;;;;;;;;;;5110233;28;20047;-71
2023/12/11 05:10:34;;;;;;;6.75;3.20;;;;;;;;;;5110783;28;20047;-71
2023/12/11 05:13:01;;;;;;;6.47;3.45;;;;;;;;;;5110139;28;20126;-71
2023/12/11 05:15:29;;;;;;;5.50;3.30;;;;;;;;;;5109617;28;20056;-72
2023/12/11 05:17:55;;;;;;;7.18;4.10;;;;;;;;;;5109816;28;20479;-72
2023/12/11 05:20:22;;;;;;;5.85;3.90;;;;;;;;;;5117424;28;20046;-71
2023/12/11 05:22:49;;;;;;;6.20;3.72;;;;;;;;;;5116874;28;20052;-72
2023/12/11 05:25:15;;;;;;;5.35;3.70;;;;;;;;;;5111529;28;20058;-72
2023/12/11 05:27:42;;;;;;;6.05;3.50;;;;;;;;;;5114319;28;20106;-71
2023/12/11 05:30:09;;;;;;;5.45;3.22;;;;;;;;;;5120171;28;20048;-71
2023/12/11 05:32:36;;;;;;;6.30;3.33;;;;;;;;;;5118493;28;20234;-71
2023/12/11 05:35:04;;;;;;;8.13;3.47;;;;;;;;;;5117291;28;20043;-72
2023/12/11 05:37:31;;;;;;;6.22;3.47;;;;;;;;;;5117876;28;20043;-71
2023/12/11 05:39:58;;;;;;;5.53;3.33;;;;;;;;;;5114098;28;20491;-71
2023/12/11 05:42:44;;;;;;;5.45;3.35;;;;;;;;;;5110000;28;20052;-72
2023/12/11 05:45:11;;;;;;;5.97;3.50;;;;;;;;;;5109791;28;20043;-71
2023/12/11 05:47:38;;;;;;;8.00;3.75;;;;;;;;;;5110022;28;20130;-72
2023/12/11 05:50:05;;;;;;;6.35;3.38;;;;;;;;;;5109634;28;20065;-72
2023/12/11 05:52:32;;;;;;;5.50;3.38;;;;;;;;;;5111766;28;20043;-71
2023/12/11 05:54:58;;;;;;;5.28;3.17;;;;;;;;;;5109358;28;20058;-71
2023/12/11 05:57:25;;;;;;;6.57;3.58;;;;;;;;;;5109868;28;20039;-72
2023/12/11 05:59:52;;;;;;;6.85;3.67;;;;;;;;;;5109595;28;20040;-71
2023/12/11 06:02:19;;;;;;;5.28;3.17;;;;;;;;;;5109762;28;20143;-71
2023/12/11 06:04:45;;;;;;;5.75;3.10;;;;;;;;;;5109407;28;20131;-72
2023/12/11 06:07:12;;;;;;;6.05;3.05;;;;;;;;;;5109405;28;20078;-74
2023/12/11 06:09:39;;;;;;;5.13;2.90;;;;;;;;;;5108855;28;20050;-72
2023/12/11 06:12:07;;;;;;;6.70;3.22;;;;;;;;;;5109618;28;20054;-71
2023/12/11 06:14:33;;;;;;;4.47;2.92;;;;;;;;;;5109481;28;20476;-71
2023/12/11 06:17:00;;;;;;;4.90;3.10;;;;;;;;;;5109218;28;20047;-71
2023/12/11 06:19:27;;;;;;;7.15;3.33;;;;;;;;;;5109630;28;20047;-71
2023/12/11 06:21:53;;;;;;;6.32;3.38;;;;;;;;;;5109119;28;20051;-72
2023/12/11 06:24:20;;;;;;;4.57;3.10;;;;;;;;;;5115958;27;20047;-72
2023/12/11 06:26:47;;;;;;;5.50;3.25;;;;;;;;;;5129589;27;20499;-74
2023/12/11 06:29:14;;;;;;;5.53;3.38;;;;;;;;;;5111222;27;20047;-71
2023/12/11 06:31:40;;;;;;;3.47;2.35;;;;;;;;;;5129729;27;20135;-71
2023/12/11 06:34:07;;;;;;;4.35;2.50;;;;;;;;;;5129902;27;20047;-74
2023/12/11 06:36:34;;;;;;;5.85;2.90;;;;;;;;;;5111101;27;20053;-71
2023/12/11 06:39:01;;;;;;;4.00;2.20;;;;;;;;;;5129027;27;20634;-73
2023/12/11 06:41:28;;;;;;;3.55;2.17;;;;;;;;;;5129522;27;20065;-73
2023/12/11 06:43:57;;;;;;;4.10;2.67;;;;;;;;;;5130427;27;20047;-71
2023/12/11 06:46:28;;;;;;;5.25;2.63;;;;;;;;;;5129521;27;20058;-73
2023/12/11 06:48:59;;;;;;;3.55;2.25;;;;;;;;;;5129341;27;20122;-74
2023/12/11 06:51:27;;;;;;;4.53;2.55;;;;;;;;;;5129575;27;20043;-71
2023/12/11 06:53:58;;;;;;;3.15;2.00;;;;;;;;;;5129160;27;20059;-71
2023/12/11 06:56:27;;;;;;;3.75;2.10;;;;;;;;;;5129110;27;20055;-73
2023/12/11 06:58:54;;;;;;;5.28;2.47;;;;;;;;;;5128984;28;20586;-71
2023/12/11 07:01:20;;;;;;;3.80;2.05;;;;;;;;;;5134322;28;20043;-73
2023/12/11 07:03:48;;;;;;;5.07;2.13;;;;;;;;;;5139465;28;20050;-73
2023/12/11 07:06:17;;;;;;;6.35;2.55;;;;;;;;;;5129363;28;20047;-73
2023/12/11 07:08:44;;;;;;;5.80;2.97;;;;;;;;;;5137088;28;20319;-71
2023/12/11 07:11:11;;;;;;;4.10;2.78;;;;;;;;;;5132232;28;20049;-73
2023/12/11 07:13:40;;;;;;;5.85;3.10;;;;;;;;;;5129085;28;20043;-71
2023/12/11 07:16:11;;;;;;;5.35;3.38;;;;;;;;;;5110481;28;20406;-71
2023/12/11 07:18:38;;;;;;;5.70;2.90;;;;;;;;;;5129236;28;20073;-71
2023/12/11 07:21:09;;;;;;;4.78;3.05;;;;;;;;;;5133202;28;20472;-72
2023/12/11 07:23:37;;;;;;;4.18;2.50;;;;;;;;;;5138216;28;20083;-73
2023/12/11 07:26:09;;;;;;;4.60;2.38;;;;;;;;;;5129116;28;20054;-71
2023/12/11 07:28:36;;;;;;;5.93;2.40;;;;;;;;;;5131546;27;20133;-71
2023/12/11 07:31:05;;;;;;;6.57;2.63;;;;;;;;;;5132975;27;20043;-70
2023/12/11 07:33:33;;;;;;;4.28;2.58;;;;;;;;;;5133355;27;20075;-71
2023/12/11 07:36:01;;;;;;;5.43;2.90;;;;;;;;;;5132834;27;20047;-71
2023/12/11 07:38:27;;;;;;;4.75;2.83;;;;;;;;;;5132968;27;20047;-72
2023/12/11 07:40:55;;;;;;;5.18;2.65;;;;;;;;;;5132525;27;20445;-71
2023/12/11 07:43:22;;;;;;;5.10;2.90;;;;;;;;;;5135939;27;20051;-73
2023/12/11 07:45:49;;;;;;;6.38;3.40;;;;;;;;;;5132799;27;20047;-74
2023/12/11 07:48:16;;;;;;;6.07;3.20;;;;;;;;;;5135094;27;20047;-73
2023/12/11 07:50:43;;;;;;;7.70;3.83;;;;;;;;;;5140605;27;20091;-73
2023/12/11 07:53:10;;;;;;;8.45;4.05;;;;;;;;;;5144569;27;20069;-73
2023/12/11 07:55:37;;;;;;;8.82;4.65;;;;;;;;;;5143787;27;20051;-73
2023/12/11 07:58:03;;;;;;;12.93;6.80;;;;;;;;;;5139330;27;20131;-73
2023/12/11 08:00:31;;;;;;;15.77;6.65;;;;;;;;;;5138887;27;20050;-73
2023/12/11 08:02:57;;;;;;;14.75;6.93;;;;;;;;;;5136039;27;20047;-73
2023/12/11 08:05:25;;;;;;;13.05;6.75;;;;;;;;;;5132873;27;20046;-73
2023/12/11 08:07:51;;;;;;;10.85;5.13;;;;;;;;;;5132210;27;20086;-73
2023/12/11 08:10:19;;;;;;;6.53;3.90;;;;;;;;;;5137104;27;20040;-73
2023/12/11 08:12:52;;;;;;;6.10;3.28;;;;;;;;;;5142836;27;20043;-73
2023/12/11 08:15:19;;;;;;;6.10;3.03;;;;;;;;;;5143129;27;20043;-73
2023/12/11 08:17:46;;;;;;;5.25;2.85;;;;;;;;;;5138396;27;20323;-73
2023/12/11 08:20:16;;;;;;;6.00;3.53;;;;;;;;;;5143860;27;20051;-72
2023/12/11 08:22:44;;;;;;;6.65;3.92;;;;;;;;;;5135352;27;20043;-73
2023/12/11 08:25:12;;;;;;;6.10;3.40;;;;;;;;;;5131567;27;20088;-72
2023/12/11 08:27:41;;;;;;;5.97;3.33;;;;;;;;;;5131962;27;20135;-72
2023/12/11 08:30:09;;;;;;;7.40;3.53;;;;;;;;;;5132034;27;20069;-73
2023/12/11 08:32:37;;;;;;;7.68;3.70;;;;;;;;;;5131574;27;20039;-73
2023/12/11 08:35:04;;;;;;;6.50;3.83;;;;;;;;;;5113884;27;20081;-73
2023/12/11 08:37:32;;;;;;;6.32;3.67;;;;;;;;;;5134499;27;20051;-72
2023/12/11 08:40:00;;;;;;;5.88;3.35;;;;;;;;;;5130819;27;20047;-72
2023/12/11 08:42:27;;;;;;;7.15;3.67;;;;;;;;;;5131638;27;20130;-73
2023/12/11 08:44:54;;;;;;;5.68;2.85;;;;;;;;;;5138130;27;20043;-73
2023/12/11 08:47:20;;;;;;;6.88;3.47;;;;;;;;;;5136946;27;20134;-73
2023/12/11 08:49:47;;;;;;;5.40;3.30;;;;;;;;;;5139594;27;20043;-73
2023/12/11 08:52:14;;;;;;;5.40;3.10;;;;;;;;;;5143202;27;20051;-73
2023/12/11 08:54:41;;;;;;;3.80;2.63;;;;;;;;;;5133871;27;20039;-73
2023/12/11 08:57:08;;;;;;;7.65;3.03;;;;;;;;;;5131361;27;20190;-73
2023/12/11 08:59:37;;;;;;;4.85;2.65;;;;;;;;;;5131660;27;20043;-73
2023/12/11 09:02:04;;;;;;;5.03;2.70;;;;;;;;;;5137716;27;20340;-73
2023/12/11 09:04:32;;;;;;;3.70;2.40;;;;;;;;;;5139742;27;20122;-73
2023/12/11 09:06:59;;;;;;;4.25;2.50;;;;;;;;;;5137695;27;20074;-73
2023/12/11 09:09:26;;;;;;;4.00;2.05;;;;;;;;;;5135589;27;20136;-73
2023/12/11 09:11:53;;;;;;;4.35;2.28;;;;;;;;;;5136404;27;20137;-72
2023/12/11 09:14:20;;;;;;;3.90;2.30;;;;;;;;;;5140416;27;20061;-73
2023/12/11 09:16:46;;;;;;;3.85;2.22;;;;;;;;;;5142479;27;20047;-73
2023/12/11 09:19:13;;;;;;;4.38;2.28;;;;;;;;;;5131267;27;20047;-72
2023/12/11 09:21:41;;;;;;;4.32;2.33;;;;;;;;;;5130691;27;20051;-73
2023/12/11 09:24:09;;;;;;;4.10;2.17;;;;;;;;;;5131606;27;20055;-72
2023/12/11 09:26:36;;;;;;;4.00;2.08;;;;;;;;;;5142739;27;20043;-73
2023/12/11 09:29:03;;;;;;;4.20;2.20;;;;;;;;;;5133068;27;20082;-72
2023/12/11 09:31:33;;;;;;;5.80;2.22;;;;;;;;;;5130695;27;20051;-73
2023/12/11 09:34:02;;;;;;;2.97;2.03;;;;;;;;;;5130750;27;20047;-73
2023/12/11 09:36:29;;;;;;;5.75;2.08;;;;;;;;;;5130927;27;20061;-74
2023/12/11 09:38:58;;;;;;;5.80;2.10;;;;;;;;;;5130217;27;20070;-73
2023/12/11 09:41:32;;;;;;;4.68;2.15;;;;;;;;;;5130371;27;20078;-73
2023/12/11 09:44:03;;;;;;;3.95;2.30;;;;;;;;;;5130893;27;20047;-74
2023/12/11 09:46:37;;;;;;;3.45;2.00;;;;;;;;;;5130795;27;20047;-73
2023/12/11 09:49:04;;;;;;;4.10;2.22;;;;;;;;;;5142323;27;20047;-73
2023/12/11 09:51:31;;;;;;;4.07;2.10;;;;;;;;;;5141818;27;20039;-74
2023/12/11 09:53:58;;;;;;;3.58;1.80;;;;;;;;;;5139050;27;20058;-73
2023/12/11 09:56:25;;;;;;;3.63;1.92;;;;;;;;;;5129969;27;20047;-72
2023/12/11 09:58:52;;;;;;;6.47;1.90;;;;;;;;;;5129831;27;20046;-72
2023/12/11 10:01:19;;;;;;;4.28;2.08;;;;;;;;;;5129978;27;20042;-71
2023/12/11 10:03:46;;;;;;;3.08;1.80;;;;;;;;;;5130046;27;20046;-71
2023/12/11 10:06:13;;;;;;;3.80;2.00;;;;;;;;;;5130039;27;20153;-74
2023/12/11 10:08:44;;;;;;;4.97;1.83;;;;;;;;;;5114460;27;20039;-71
2023/12/11 10:11:14;;;;;;;5.25;1.90;;;;;;;;;;5129838;27;20043;-72
2023/12/11 10:13:42;;;;;;;6.22;2.00;;;;;;;;;;5129544;27;20043;-72
2023/12/11 10:16:31;;;;;;;3.42;2.03;;;;;;;;;;5131744;27;20043;-71
2023/12/11 10:19:00;;;;;;;5.63;2.00;;;;;;;;;;5133948;27;20080;-72
2023/12/11 10:21:41;;;;;;;3.35;1.88;;;;;;;;;;5129077;27;20043;-71
2023/12/11 10:24:13;;;;;;;3.75;1.50;;;;;;;;;;5130710;27;20239;-73
2023/12/11 10:26:52;;;;;;;3.65;1.67;;;;;;;;;;5129890;27;20589;-73
2023/12/11 10:29:21;;;;;;;3.20;1.10;;;;;;;;;;5129824;27;20055;-76
2023/12/11 10:31:48;;;;;;;1.70;1.10;;;;;;;;;;5125241;27;20265;-72
2023/12/11 10:34:15;;;;;;;2.95;1.30;;;;;;;;;;5113336;27;20435;-72
2023/12/11 10:36:49;;;;;;;4.00;0.95;;;;;;;;;;5138056;27;20050;-72
2023/12/11 10:39:19;;;;;;;1.40;0.85;;;;;;;;;;5131088;27;20103;-72
2023/12/11 10:41:48;;;;;;;3.33;0.80;;;;;;;;;;5116735;28;20043;-72
2023/12/11 10:44:25;;;;;;;1.42;0.90;;;;;;;;;;5120529;28;20044;-71
2023/12/11 10:47:12;;;;;;;1.75;0.80;;;;;;;;;;5116455;28;20059;-72
2023/12/11 10:49:42;;;;;;;2.63;1.00;;;;;;;;;;5125328;27;20069;-72
2023/12/11 10:52:09;;;;;;;2.58;0.77;;;;;;;;;;5115868;27;20054;-73
2023/12/11 10:54:42;;;;;;;1.30;0.80;;;;;;;;;;5130082;27;20144;-73
2023/12/11 10:57:14;;;;;;;1.80;0.80;;;;;;;;;;5122972;28;20212;-73
2023/12/11 10:59:42;;;;;;;3.33;0.82;;;;;;;;;;5135269;27;20100;-75
2023/12/11 11:02:13;;;;;;;2.30;0.90;;;;;;;;;;5118621;28;20518;-73
2023/12/11 11:04:41;;;;;;;2.22;0.80;;;;;;;;;;5117755;28;20047;-72
2023/12/11 11:07:11;;;;;;;2.80;0.90;;;;;;;;;;5116674;28;20040;-74
2023/12/11 11:09:49;;;;;;;1.05;0.77;;;;;;;;;;5122941;28;20382;-72
2023/12/11 11:12:36;;;;;;;2.45;1.05;;;;;;;;;;5120121;28;20040;-74
2023/12/11 11:15:05;;;;;;;1.45;0.82;;;;;;;;;;5118694;28;20326;-73
2023/12/11 11:18:05;;;;;;;2.70;0.90;;;;;;;;;;5113151;28;20143;-72
2023/12/11 11:20:39;;;;;;;2.22;0.80;;;;;;;;;;5116844;28;20047;-72
2023/12/11 11:23:18;;;;;;;1.60;0.80;;;;;;;;;;5116795;28;20066;-72
2023/12/11 11:25:51;;;;;;;2.85;0.80;;;;;;;;;;5118086;28;20047;-72
2023/12/11 11:28:38;;;;;;;1.58;0.90;;;;;;;;;;5117508;28;20244;-73
2023/12/11 11:31:09;;;;;;;2.05;1.00;;;;;;;;;;5121644;28;20043;-72
2023/12/11 11:33:52;;;;;;;2.28;0.80;;;;;;;;;;5120755;27;20043;-73
2023/12/11 11:36:21;;;;;;;2.08;1.05;;;;;;;;;;5122049;28;20318;-72
2023/12/11 11:38:56;;;;;;;1.85;0.93;;;;;;;;;;5124090;28;20047;-73
2023/12/11 11:41:25;;;;;;;1.90;0.90;;;;;;;;;;5124927;28;20510;-73
2023/12/11 11:44:10;;;;;;;1.45;0.75;;;;;;;;;;5124729;28;20051;-73
2023/12/11 11:46:55;;;;;;;3.03;1.00;;;;;;;;;;5121287;27;20051;-73
2023/12/11 11:49:29;;;;;;;2.20;0.93;;;;;;;;;;5123274;28;20204;-71
2023/12/11 11:51:56;;;;;;;1.45;0.70;;;;;;;;;;5126085;28;20046;-72
2023/12/11 11:54:24;;;;;;;2.03;0.80;;;;;;;;;;5123346;28;20051;-73
2023/12/11 11:56:52;;;;;;;3.97;0.95;;;;;;;;;;5102028;28;20054;-72
2023/12/11 11:59:19;;;;;;;1.65;0.82;;;;;;;;;;5127821;28;20100;-73
2023/12/11 12:01:53;;;;;;;2.03;0.90;;;;;;;;;;5127676;28;20050;-71
2023/12/11 12:04:26;;;;;;;1.45;0.90;;;;;;;;;;5123250;27;20123;-71
2023/12/11 12:06:56;;;;;;;1.80;0.80;;;;;;;;;;5118326;28;20046;-72
2023/12/11 12:09:24;;;;;;;1.85;0.95;;;;;;;;;;5116393;28;20052;-72
2023/12/11 12:11:51;;;;;;;1.42;0.85;;;;;;;;;;5118025;28;20054;-73
2023/12/11 12:14:18;;;;;;;3.78;0.90;;;;;;;;;;5119969;27;20577;-75
2023/12/11 12:16:48;;;;;;;2.57;0.80;;;;;;;;;;5124382;27;20433;-72
2023/12/11 12:19:28;;;;;;;1.67;0.90;;;;;;;;;;5124296;27;20128;-72
2023/12/11 12:21:55;;;;;;;;;;;;;;;;;;5109848;28;20055;-72
2023/12/11 12:24:22;;;;;;;1.80;0.90;;;;;;;;;;5113149;28;19917;-72
2023/12/11 12:26:57;;;;;;;3.15;1.08;;;;;;;;;;5114922;28;20040;-73
2023/12/11 12:29:26;;;;;;;1.95;1.15;;;;;;;;;;5112222;28;20097;-74
2023/12/11 12:31:53;;;;;;;2.22;0.80;;;;;;;;;;5119021;27;20043;-73
2023/12/11 12:34:21;;;;;;;2.22;0.90;;;;;;;;;;5109318;28;20415;-73
2023/12/11 12:36:48;;;;;;;1.40;0.90;;;;;;;;;;5108868;28;20502;-72
2023/12/11 12:39:18;;;;;;;1.88;1.00;;;;;;;;;;5108836;28;20052;-72
2023/12/11 12:41:48;;;;;;;4.10;0.95;;;;;;;;;;5110301;28;20044;-73
2023/12/11 12:44:19;;;;;;;1.85;0.85;;;;;;;;;;5121915;27;20582;-73
2023/12/11 12:46:46;;;;;;;1.58;1.00;;;;;;;;;;5103932;27;20065;-72
2023/12/11 12:49:17;;;;;;;1.83;0.88;;;;;;;;;;5123549;27;20384;-73
2023/12/11 12:51:52;;;;;;;1.95;0.88;;;;;;;;;;5116436;27;20051;-73
2023/12/11 12:54:21;;;;;;;2.03;0.90;;;;;;;;;;5123673;27;20046;-73
2023/12/11 12:56:56;;;;;;;1.52;0.90;;;;;;;;;;5118056;27;20410;-74
2023/12/11 12:59:23;;;;;;;2.65;0.85;;;;;;;;;;5120160;27;20039;-73
2023/12/11 13:01:51;;;;;;;1.70;0.80;;;;;;;;;;5122312;27;20035;-72
2023/12/11 13:04:20;;;;;;;3.92;0.95;;;;;;;;;;5130942;27;20323;-73
2023/12/11 13:06:47;;;;;;;1.80;0.80;;;;;;;;;;5122695;27;20087;-74
2023/12/11 13:09:34;;;;;;;1.10;0.77;;;;;;;;;;5112187;28;20101;-72
2023/12/11 13:12:02;;;;;;;2.75;1.00;;;;;;;;;;5111028;28;20054;-73
2023/12/11 13:14:29;;;;;;;3.53;1.00;;;;;;;;;;5117049;28;20119;-73
2023/12/11 13:16:56;;;;;;;3.38;1.00;;;;;;;;;;5099169;28;20044;-72
2023/12/11 13:19:24;;;;;;;3.58;1.10;;;;;;;;;;5118301;28;20043;-73
2023/12/11 13:21:51;;;;;;;2.38;1.08;;;;;;;;;;5122648;27;20136;-72
2023/12/11 13:24:18;;;;;;;1.63;0.80;;;;;;;;;;5123606;27;20059;-72
2023/12/11 13:26:45;;;;;;;2.45;0.80;;;;;;;;;;5124266;27;20147;-72
2023/12/11 13:29:11;;;;;;;1.27;0.80;;;;;;;;;;5124711;27;20051;-72
2023/12/11 13:31:40;;;;;;;1.92;0.88;;;;;;;;;;5125587;27;20047;-72
2023/12/11 13:34:06;;;;;;;3.08;0.93;;;;;;;;;;5118913;27;20048;-72
2023/12/11 13:36:33;;;;;;;1.98;0.85;;;;;;;;;;5123388;27;20113;-72
2023/12/11 13:39:00;;;;;;;2.70;0.88;;;;;;;;;;5129774;27;20058;-72
2023/12/11 13:41:27;;;;;;;1.00;0.50;;;;;;;;;;5124315;27;20043;-72
2023/12/11 13:43:54;;;;;;;1.02;0.70;;;;;;;;;;5127309;27;20088;-73
2023/12/11 13:46:21;;;;;;;1.83;0.73;;;;;;;;;;5123530;27;20043;-73
2023/12/11 13:48:48;;;;;;;2.10;0.80;;;;;;;;;;5126330;27;20035;-73
2023/12/11 13:51:15;;;;;;;1.55;0.70;;;;;;;;;;5124306;27;20043;-72
2023/12/11 13:53:42;;;;;;;1.27;0.68;;;;;;;;;;5131004;27;20213;-73
2023/12/11 13:56:09;;;;;;;1.30;0.80;;;;;;;;;;5121328;27;20051;-72
2023/12/11 13:58:35;;;;;;;0.90;0.70;;;;;;;;;;5127329;27;20047;-73
2023/12/11 14:01:02;;;;;;;1.63;0.90;;;;;;;;;;5119648;27;20043;-73
2023/12/11 14:03:30;;;;;;;2.47;0.80;;;;;;;;;;5122954;27;20043;-74
2023/12/11 14:05:57;;;;;;;1.55;0.70;;;;;;;;;;5122580;27;20039;-73
2023/12/11 14:08:23;;;;;;;1.40;0.80;;;;;;;;;;5117908;27;20121;-72
2023/12/11 14:10:50;;;;;;;0.80;0.60;;;;;;;;;;5122065;27;20510;-72
2023/12/11 14:13:16;;;;;;;2.45;0.70;;;;;;;;;;5122418;27;20527;-73
2023/12/11 14:15:47;;;;;;;1.73;0.82;;;;;;;;;;5107284;28;20151;-73
2023/12/11 14:18:13;;;;;;;3.10;0.90;;;;;;;;;;5106769;28;20052;-75
2023/12/11 14:20:42;;;;;;;0.80;0.68;;;;;;;;;;5115534;27;20419;-72
2023/12/11 14:23:09;;;;;;;1.38;0.70;;;;;;;;;;5119408;27;20051;-74
2023/12/11 14:25:37;;;;;;;0.70;0.60;;;;;;;;;;5123638;27;20065;-73
2023/12/11 14:28:04;;;;;;;3.50;0.90;;;;;;;;;;5113993;27;20043;-74
2023/12/11 14:30:36;;;;;;;2.22;0.88;;;;;;;;;;5128364;27;20043;-73
2023/12/11 14:33:04;;;;;;;2.47;1.00;;;;;;;;;;5122168;27;20643;-72
2023/12/11 14:35:31;;;;;;;1.42;0.75;;;;;;;;;;5124466;27;20051;-74
2023/12/11 14:37:59;;;;;;;1.63;0.80;;;;;;;;;;5122488;27;20055;-80
2023/12/11 14:40:26;;;;;;;1.90;1.00;;;;;;;;;;5121285;27;20162;-77
2023/12/11 14:42:52;;;;;;;1.40;0.80;;;;;;;;;;5123663;27;20343;-73
2023/12/11 14:45:20;;;;;;;1.85;0.98;;;;;;;;;;5116618;27;20040;-73
2023/12/11 14:47:46;;;;;;;1.75;0.90;;;;;;;;;;5125181;27;20051;-71
2023/12/11 14:50:13;;;;;;;1.60;0.63;;;;;;;;;;5126057;27;20108;-72